createdAt,value
2022-09-14T00:01:40.092Z,1.63
2022-09-14T00:04:18.399Z,1.35
2022-09-14T00:06:46.787Z,1.20
2022-09-14T00:09:23.021Z,1.88
2022-09-14T00:11:51.467Z,1.40
2022-09-14T00:14:19.822Z,1.70
2022-09-14T00:16:47.994Z,1.50
2022-09-14T00:19:21.160Z,1.40
2022-09-14T00:21:53.576Z,1.58
2022-09-14T00:24:21.972Z,1.52
2022-09-14T00:26:49.358Z,1.20
2022-09-14T00:29:17.061Z,1.42
2022-09-14T00:31:45.592Z,1.60
2022-09-14T00:34:15.963Z,1.73
2022-09-14T00:36:47.543Z,1.48
2022-09-14T00:39:17.735Z,1.60
2022-09-14T00:41:47.442Z,1.60
2022-09-14T00:44:16.043Z,1.50
2022-09-14T00:46:47.254Z,1.85
2022-09-14T00:49:36.247Z,1.58
2022-09-14T00:52:20.707Z,1.70
2022-09-14T00:54:56.552Z,1.63
2022-09-14T00:57:26.564Z,1.45
2022-09-14T00:59:54.845Z,1.48
2022-09-14T01:02:24.555Z,1.65
2022-09-14T01:04:52.116Z,1.50
2022-09-14T01:11:14.994Z,1.50
2022-09-14T01:13:47.331Z,1.90
2022-09-14T01:16:41.573Z,1.75
2022-09-14T01:19:24.080Z,1.50
2022-09-14T01:21:55.443Z,1.70
2022-09-14T01:27:41.777Z,1.70
2022-09-14T01:30:21.376Z,1.60
2022-09-14T01:33:18.235Z,1.30
2022-09-14T01:35:55.554Z,1.58
2022-09-14T01:38:51.353Z,1.90
2022-09-14T01:41:24.581Z,1.40
2022-09-14T01:44:04.210Z,1.63
2022-09-14T01:46:43.781Z,2.05
2022-09-14T01:49:14.382Z,1.88
2022-09-14T01:52:13.595Z,2.20
2022-09-14T01:54:50.590Z,1.75
2022-09-14T01:57:24.223Z,2.10
2022-09-14T01:59:56.955Z,1.80
2022-09-14T02:02:53.025Z,1.73
2022-09-14T02:05:23.525Z,1.55
2022-09-14T02:07:50.865Z,1.90
2022-09-14T02:10:19.020Z,1.73
2022-09-14T02:12:46.462Z,1.95
2022-09-14T02:15:16.474Z,1.98
2022-09-14T02:17:44.016Z,2.28
2022-09-14T02:20:52.048Z,2.03
2022-09-14T02:23:19.549Z,2.00
2022-09-14T02:25:47.662Z,2.67
2022-09-14T02:28:14.928Z,1.83
2022-09-14T02:31:12.549Z,1.88
2022-09-14T02:33:51.953Z,2.45
2022-09-14T02:36:52.410Z,2.00
2022-09-14T02:39:57.155Z,2.17
2022-09-14T02:42:40.371Z,1.77
2022-09-14T02:45:54.767Z,2.50
2022-09-14T02:49:24.508Z,2.30
2022-09-14T02:52:28.659Z,2.30
2022-09-14T02:55:05.255Z,1.95
2022-09-14T02:57:32.481Z,2.33
2022-09-14T02:59:59.498Z,1.95
2022-09-14T03:02:26.739Z,2.00
2022-09-14T03:04:53.855Z,2.72
2022-09-14T03:07:21.084Z,2.05
2022-09-14T03:09:48.248Z,2.05
2022-09-14T03:12:15.565Z,2.47
2022-09-14T03:14:45.819Z,2.40
2022-09-14T03:17:13.057Z,2.40
2022-09-14T03:19:58.484Z,2.10
2022-09-14T03:22:26.163Z,2.40
2022-09-14T03:24:53.157Z,2.13
2022-09-14T03:27:20.197Z,2.25
2022-09-14T03:29:48.172Z,2.03
2022-09-14T03:32:15.246Z,2.00
2022-09-14T03:34:42.739Z,1.90
2022-09-14T03:37:10.386Z,2.13
2022-09-14T03:39:38.010Z,2.22
2022-09-14T03:42:05.585Z,2.38
2022-09-14T03:44:32.628Z,2.35
2022-09-14T03:47:00.067Z,2.58
2022-09-14T03:49:27.577Z,2.50
2022-09-14T03:51:59.531Z,2.40
2022-09-14T03:54:28.056Z,3.00
2022-09-14T03:56:55.319Z,2.30
2022-09-14T03:59:23.081Z,2.10
2022-09-14T04:01:50.115Z,2.72
2022-09-14T04:04:17.189Z,1.98
2022-09-14T04:06:44.331Z,2.63
2022-09-14T04:09:12.049Z,2.38
2022-09-14T04:11:39.073Z,2.10
2022-09-14T04:14:07.663Z,2.55
2022-09-14T04:16:34.766Z,2.53
2022-09-14T04:19:01.860Z,2.72
2022-09-14T04:21:31.082Z,2.40
2022-09-14T04:24:16.012Z,2.40
2022-09-14T04:26:45.351Z,2.50
2022-09-14T04:29:14.411Z,2.00
2022-09-14T04:31:41.706Z,2.20
2022-09-14T04:34:13.177Z,2.33
2022-09-14T04:36:40.376Z,2.38
2022-09-14T04:39:11.089Z,2.40
2022-09-14T04:41:38.108Z,1.88
2022-09-14T04:44:05.110Z,2.40
2022-09-14T04:46:45.114Z,2.22
2022-09-14T04:49:13.210Z,2.58
2022-09-14T04:51:40.464Z,2.25
2022-09-14T04:54:07.630Z,2.38
2022-09-14T04:56:37.132Z,2.50
2022-09-14T04:59:06.035Z,2.40
2022-09-14T05:01:40.346Z,2.00
2022-09-14T05:04:09.231Z,2.28
2022-09-14T05:06:39.324Z,2.70
2022-09-14T05:09:13.533Z,2.30
2022-09-14T05:11:41.865Z,2.75
2022-09-14T05:14:13.003Z,2.58
2022-09-14T05:16:43.072Z,3.08
2022-09-14T05:19:15.091Z,3.28
2022-09-14T05:21:42.223Z,2.90
2022-09-14T05:24:18.411Z,2.55
2022-09-14T05:26:46.917Z,3.10
2022-09-14T05:29:17.989Z,3.00
2022-09-14T05:31:45.984Z,2.80
2022-09-14T05:34:14.024Z,2.90
2022-09-14T05:36:41.479Z,3.03
2022-09-14T05:39:09.281Z,2.70
2022-09-14T05:41:38.280Z,2.75
2022-09-14T05:44:06.415Z,2.92
2022-09-14T05:46:34.318Z,2.95
2022-09-14T05:49:01.427Z,3.28
2022-09-14T05:51:28.668Z,2.55
2022-09-14T05:53:58.639Z,2.47
2022-09-14T05:56:31.815Z,2.70
2022-09-14T05:58:59.675Z,2.55
2022-09-14T06:01:30.416Z,2.67
2022-09-14T06:04:00.817Z,2.55
2022-09-14T06:06:28.318Z,3.00
2022-09-14T06:08:57.170Z,3.00
2022-09-14T06:11:30.734Z,2.72
2022-09-14T06:13:58.747Z,2.72
2022-09-14T06:16:28.496Z,3.00
2022-09-14T06:18:59.202Z,2.65
2022-09-14T06:21:33.493Z,2.70
2022-09-14T06:24:01.299Z,2.63
2022-09-14T06:26:28.511Z,3.03
2022-09-14T06:28:55.834Z,2.97
2022-09-14T06:31:22.997Z,2.70
2022-09-14T06:33:51.906Z,3.25
2022-09-14T06:36:23.683Z,2.47
2022-09-14T06:38:51.696Z,3.10
2022-09-14T06:41:30.579Z,3.08
2022-09-14T06:44:01.507Z,2.65
2022-09-14T06:46:34.301Z,2.78
2022-09-14T06:49:11.254Z,2.25
2022-09-14T06:51:42.980Z,3.28
2022-09-14T06:54:12.401Z,2.30
2022-09-14T06:56:41.315Z,2.65
2022-09-14T06:59:12.706Z,2.60
2022-09-14T07:01:40.004Z,2.60
2022-09-14T07:04:07.189Z,2.63
2022-09-14T07:06:48.043Z,2.58
2022-09-14T07:09:17.676Z,2.53
2022-09-14T07:11:46.031Z,2.67
2022-09-14T07:14:13.088Z,2.67
2022-09-14T07:16:40.772Z,2.30
2022-09-14T07:19:12.976Z,2.40
2022-09-14T07:21:41.111Z,2.35
2022-09-14T07:24:08.237Z,2.40
2022-09-14T07:26:39.956Z,2.17
2022-09-14T07:29:12.030Z,2.30
2022-09-14T07:31:52.159Z,2.38
2022-09-14T07:34:19.825Z,2.20
2022-09-14T07:36:47.008Z,2.22
2022-09-14T07:39:16.586Z,2.13
2022-09-14T07:41:44.129Z,1.95
2022-09-14T07:44:16.295Z,1.92
2022-09-14T07:46:45.095Z,2.15
2022-09-14T07:49:13.459Z,1.73
2022-09-14T07:51:40.796Z,2.10
2022-09-14T07:54:12.340Z,1.77
2022-09-14T07:56:40.576Z,1.60
2022-09-14T07:59:33.432Z,1.90
2022-09-14T08:01:55.117Z,1.88
2022-09-14T08:04:22.202Z,2.35
2022-09-14T08:06:49.503Z,1.85
2022-09-14T08:09:16.547Z,1.50
2022-09-14T08:11:43.784Z,1.95
2022-09-14T08:14:14.012Z,1.67
2022-09-14T08:16:41.870Z,1.70
2022-09-14T08:19:16.603Z,1.85
2022-09-14T08:21:47.335Z,1.67
2022-09-14T08:24:21.048Z,1.80
2022-09-14T08:26:49.379Z,1.80
2022-09-14T08:29:18.411Z,1.83
2022-09-14T08:31:47.119Z,1.63
2022-09-14T08:34:16.881Z,1.70
2022-09-14T08:36:45.696Z,1.83
2022-09-14T08:39:15.438Z,1.60
2022-09-14T08:42:00.087Z,1.88
2022-09-14T08:44:43.256Z,1.73
2022-09-14T08:47:41.993Z,1.75
2022-09-14T08:50:29.725Z,1.40
2022-09-14T08:52:56.815Z,1.65
2022-09-14T08:55:54.773Z,1.75
2022-09-14T08:58:49.777Z,1.42
2022-09-14T09:01:41.943Z,1.70
2022-09-14T09:04:28.716Z,1.73
2022-09-14T09:07:13.664Z,1.48
2022-09-14T09:09:49.155Z,1.50
2022-09-14T09:12:24.537Z,1.55
2022-09-14T09:15:01.881Z,2.38
2022-09-14T09:17:47.483Z,1.75
2022-09-14T09:20:40.905Z,2.03
2022-09-14T09:23:22.883Z,1.67
2022-09-14T09:25:55.815Z,1.80
2022-09-14T09:28:24.706Z,1.85
2022-09-14T09:33:58.682Z,1.48
2022-09-14T09:36:33.239Z,1.60
2022-09-14T09:39:04.391Z,1.60
2022-09-14T09:41:58.027Z,1.70
2022-09-14T09:44:25.368Z,1.48
2022-09-14T09:47:01.675Z,2.08
2022-09-14T09:49:39.896Z,2.00
2022-09-14T09:52:14.587Z,1.80
2022-09-14T09:54:53.414Z,2.20
2022-09-14T09:57:32.125Z,1.95
2022-09-14T10:00:20.420Z,1.88
2022-09-14T10:02:48.366Z,2.00
2022-09-14T10:05:24.350Z,1.80
2022-09-14T10:08:19.361Z,2.15
2022-09-14T10:10:47.427Z,1.50
2022-09-14T10:13:38.609Z,2.00
2022-09-14T10:16:18.216Z,1.63
2022-09-14T10:18:51.811Z,2.17
2022-09-14T10:21:25.677Z,1.50
2022-09-14T10:24:07.329Z,1.63
2022-09-14T10:26:36.756Z,2.28
2022-09-14T10:29:38.273Z,1.90
2022-09-14T10:32:24.139Z,1.55
2022-09-14T10:34:52.117Z,1.60
2022-09-14T10:37:28.347Z,1.85
2022-09-14T10:40:19.809Z,1.33
2022-09-14T10:43:04.105Z,1.50
2022-09-14T10:45:55.223Z,1.92
2022-09-14T10:48:50.579Z,1.40
2022-09-14T10:51:54.295Z,1.63
2022-09-14T10:54:43.249Z,1.67
2022-09-14T10:57:16.556Z,1.40
2022-09-14T11:00:13.580Z,1.60
2022-09-14T11:03:44.051Z,1.80
2022-09-14T11:06:49.436Z,1.80
2022-09-14T11:09:30.740Z,1.98
2022-09-14T11:12:21.704Z,2.35
2022-09-14T11:15:19.091Z,1.88
2022-09-14T11:18:17.543Z,1.73
2022-09-14T11:21:41.071Z,2.17
2022-09-14T11:24:44.997Z,1.58
2022-09-14T11:27:35.966Z,1.63
2022-09-14T11:30:21.656Z,2.05
2022-09-14T11:32:55.904Z,2.08
2022-09-14T11:35:36.475Z,1.92
2022-09-14T11:38:20.800Z,2.60
2022-09-14T11:41:03.822Z,1.95
2022-09-14T11:43:41.301Z,1.80
2022-09-14T11:46:16.135Z,1.80
2022-09-14T11:49:05.495Z,1.85
2022-09-14T11:54:44.607Z,1.90
2022-09-14T11:57:20.519Z,1.70
2022-09-14T11:59:55.860Z,1.80
2022-09-14T12:02:22.936Z,1.60
2022-09-14T12:05:08.408Z,1.92
2022-09-14T12:07:43.052Z,1.80
2022-09-14T12:10:18.961Z,1.80
2022-09-14T12:12:56.307Z,2.08
2022-09-14T12:15:27.004Z,1.80
2022-09-14T12:18:21.604Z,1.77
2022-09-14T12:21:15.515Z,1.90
2022-09-14T12:23:48.107Z,2.17
2022-09-14T12:26:31.483Z,1.60
2022-09-14T12:29:06.862Z,1.83
2022-09-14T12:31:40.171Z,2.00
2022-09-14T12:34:24.040Z,1.98
2022-09-14T12:36:52.012Z,2.03
2022-09-14T12:39:27.600Z,1.70
2022-09-14T12:41:54.627Z,1.67
2022-09-14T12:44:43.839Z,1.80
2022-09-14T12:47:27.820Z,2.25
2022-09-14T12:50:00.948Z,2.08
2022-09-14T12:52:41.045Z,1.90
2022-09-14T12:55:26.492Z,1.50
2022-09-14T12:58:38.028Z,1.50
2022-09-14T13:01:21.135Z,1.30
2022-09-14T13:03:57.399Z,1.05
2022-09-14T13:06:39.919Z,1.23
2022-09-14T13:09:33.174Z,0.73
2022-09-14T13:12:06.234Z,0.93
2022-09-14T13:14:56.067Z,1.05
2022-09-14T13:17:24.170Z,0.82
2022-09-14T13:19:58.373Z,0.90
2022-09-14T13:22:31.884Z,0.80
2022-09-14T13:25:01.512Z,0.75
2022-09-14T13:27:31.415Z,0.90
2022-09-14T13:30:08.429Z,0.93
2022-09-14T13:32:44.247Z,0.80
2022-09-14T13:35:44.075Z,0.80
2022-09-14T13:38:23.053Z,0.88
2022-09-14T13:40:56.279Z,0.60
2022-09-14T13:43:23.938Z,0.70
2022-09-14T13:45:52.479Z,0.95
2022-09-14T13:48:20.744Z,0.77
2022-09-14T13:50:50.939Z,1.00
2022-09-14T13:53:38.108Z,0.80
2022-09-14T13:56:26.923Z,0.95
2022-09-14T13:59:10.121Z,1.17
2022-09-14T14:02:04.208Z,1.00
2022-09-14T14:04:38.294Z,0.73
2022-09-14T14:07:27.609Z,1.10
2022-09-14T14:09:57.506Z,0.90
2022-09-14T14:12:33.349Z,1.13
2022-09-14T14:15:06.166Z,0.90
2022-09-14T14:17:37.688Z,0.75
2022-09-14T14:20:27.002Z,0.98
2022-09-14T14:25:33.228Z,0.90
2022-09-14T14:28:03.485Z,0.90
2022-09-14T14:30:34.219Z,0.82
2022-09-14T14:33:01.853Z,1.20
2022-09-14T14:35:31.412Z,0.77
2022-09-14T14:37:59.382Z,0.80
2022-09-14T14:40:27.849Z,0.98
2022-09-14T14:42:58.343Z,0.68
2022-09-14T14:45:27.485Z,0.93
2022-09-14T14:47:56.219Z,0.90
2022-09-14T14:50:34.186Z,1.33
2022-09-14T14:53:03.513Z,0.93
2022-09-14T14:55:32.964Z,0.90
2022-09-14T14:58:03.379Z,1.10
2022-09-14T15:00:34.439Z,1.05
2022-09-14T15:03:01.810Z,0.93
2022-09-14T15:05:29.166Z,0.60
2022-09-14T15:07:56.213Z,0.80
2022-09-14T15:10:33.688Z,0.70
2022-09-14T15:13:01.058Z,0.60
2022-09-14T15:15:28.239Z,0.60
2022-09-14T15:17:55.697Z,0.77
2022-09-14T15:20:23.045Z,0.90
2022-09-14T15:22:50.702Z,0.52
2022-09-14T15:25:20.411Z,0.70
2022-09-14T15:27:47.810Z,0.30
2022-09-14T15:30:15.566Z,0.50
2022-09-14T15:32:43.466Z,0.77
2022-09-14T15:35:14.113Z,0.60
2022-09-14T15:37:41.943Z,0.60
2022-09-14T15:40:10.103Z,0.47
2022-09-14T15:42:37.538Z,0.37
2022-09-14T15:45:05.503Z,0.35
2022-09-14T15:47:36.165Z,0.50
2022-09-14T15:50:05.875Z,0.52
2022-09-14T15:52:36.901Z,0.70
2022-09-14T15:55:10.009Z,0.50
2022-09-14T15:57:38.530Z,0.60
2022-09-14T16:00:10.299Z,0.50
2022-09-14T16:02:41.713Z,0.57
2022-09-14T16:05:09.413Z,0.63
2022-09-14T16:07:36.730Z,0.50
2022-09-14T16:10:04.141Z,0.75
2022-09-14T16:12:31.329Z,0.65
2022-09-14T16:14:58.382Z,0.40
2022-09-14T16:17:25.526Z,0.60
2022-09-14T16:19:53.054Z,0.70
2022-09-14T16:22:20.389Z,0.60
2022-09-14T16:24:48.192Z,0.57
2022-09-14T16:27:15.264Z,0.60
2022-09-14T16:29:43.943Z,1.10
2022-09-14T16:32:11.235Z,0.65
2022-09-14T16:34:38.537Z,1.05
2022-09-14T16:37:05.594Z,0.80
2022-09-14T16:39:35.120Z,0.65
2022-09-14T16:42:02.673Z,0.60
2022-09-14T16:44:29.970Z,0.60
2022-09-14T16:46:59.286Z,0.70
2022-09-14T16:54:25.514Z,0.50
2022-09-14T16:56:58.133Z,0.40
2022-09-14T16:59:26.140Z,0.50
2022-09-14T17:01:55.020Z,0.70
2022-09-14T17:04:24.338Z,0.50
2022-09-14T17:06:52.899Z,0.52
2022-09-14T17:09:26.538Z,0.40
2022-09-14T17:11:56.462Z,0.55
2022-09-14T17:14:29.950Z,0.50
2022-09-14T17:16:57.946Z,0.68
2022-09-14T17:19:25.739Z,0.32
2022-09-14T17:21:53.453Z,0.57
2022-09-14T17:24:21.963Z,0.40
2022-09-14T17:27:08.599Z,0.55
2022-09-14T17:29:38.502Z,0.38
2022-09-14T17:32:06.246Z,0.73
2022-09-14T17:34:33.630Z,0.50
2022-09-14T17:37:01.212Z,0.60
2022-09-14T17:39:28.399Z,0.35
2022-09-14T17:41:55.717Z,0.75
2022-09-14T17:44:25.845Z,0.60
2022-09-14T17:46:53.401Z,0.85
2022-09-14T17:49:22.954Z,0.40
2022-09-14T17:54:19.254Z,0.60
2022-09-14T17:56:46.675Z,0.60
2022-09-14T17:59:19.868Z,0.40
2022-09-14T18:01:48.695Z,0.63
2022-09-14T18:04:16.885Z,0.55
2022-09-14T18:06:47.486Z,0.40
2022-09-14T18:09:24.751Z,0.60
2022-09-14T18:11:56.237Z,0.50
2022-09-14T18:14:24.383Z,0.70
2022-09-14T18:16:51.633Z,0.47
2022-09-14T18:19:18.844Z,0.80
2022-09-14T18:24:31.290Z,0.50
2022-09-14T18:26:59.788Z,0.45
2022-09-14T18:29:29.711Z,0.90
2022-09-14T18:31:57.356Z,0.80
2022-09-14T18:34:25.955Z,0.52
2022-09-14T18:36:52.975Z,0.80
2022-09-14T18:39:20.277Z,1.25
2022-09-14T18:41:52.087Z,0.82
2022-09-14T18:44:20.403Z,1.05
2022-09-14T18:46:47.819Z,1.00
2022-09-14T18:49:15.557Z,0.85
2022-09-14T18:51:44.173Z,1.50
2022-09-14T18:54:13.463Z,0.88
2022-09-14T18:56:40.951Z,0.50
2022-09-14T18:59:12.378Z,0.70
2022-09-14T19:01:42.819Z,0.68
2022-09-14T19:04:11.363Z,0.70
2022-09-14T19:06:41.587Z,0.77
2022-09-14T19:09:09.649Z,0.60
2022-09-14T19:11:36.687Z,0.43
2022-09-14T19:14:10.203Z,0.70
2022-09-14T19:16:39.775Z,0.65
2022-09-14T19:19:11.603Z,0.63
2022-09-14T19:21:38.673Z,0.95
2022-09-14T19:24:14.895Z,1.17
2022-09-14T19:26:50.201Z,0.95
2022-09-14T19:29:23.078Z,0.80
2022-09-14T19:31:52.271Z,1.08
2022-09-14T19:34:22.784Z,0.75
2022-09-14T19:36:50.599Z,0.60
2022-09-14T19:39:18.432Z,0.70
2022-09-14T19:41:45.998Z,0.63
2022-09-14T19:44:13.818Z,0.88
2022-09-14T19:46:41.300Z,0.80
2022-09-14T19:49:15.832Z,0.93
2022-09-14T19:51:43.850Z,0.60
2022-09-14T19:54:11.829Z,0.70
2022-09-14T19:56:39.336Z,0.65
2022-09-14T19:59:08.018Z,0.70
2022-09-14T20:01:38.048Z,0.70
2022-09-14T20:04:07.588Z,1.02
2022-09-14T20:06:42.960Z,1.08
2022-09-14T20:09:14.595Z,1.00
2022-09-14T20:11:43.493Z,0.80
2022-09-14T20:14:16.788Z,1.05
2022-09-14T20:16:57.632Z,1.00
2022-09-14T20:19:29.345Z,1.00
2022-09-14T20:21:56.989Z,1.20
2022-09-14T20:24:27.777Z,1.17
2022-09-14T20:26:59.862Z,1.20
2022-09-14T20:29:30.596Z,0.95
2022-09-14T20:31:58.808Z,0.75
2022-09-14T20:34:25.992Z,1.10
2022-09-14T20:36:54.449Z,1.10
2022-09-14T20:39:23.506Z,1.33
2022-09-14T20:41:50.839Z,0.90
2022-09-14T20:44:22.222Z,1.00
2022-09-14T20:46:50.874Z,1.35
2022-09-14T20:49:22.018Z,1.00
2022-09-14T20:51:52.594Z,1.27
2022-09-14T20:54:20.553Z,1.05
2022-09-14T20:56:47.720Z,1.20
2022-09-14T20:59:18.538Z,1.00
2022-09-14T21:01:49.390Z,1.42
2022-09-14T21:04:20.694Z,0.90
2022-09-14T21:06:52.449Z,1.20
2022-09-14T21:09:22.723Z,1.20
2022-09-14T21:11:52.260Z,1.20
2022-09-14T21:16:49.915Z,1.00
2022-09-14T21:21:55.635Z,0.77
2022-09-14T21:24:24.066Z,1.30
2022-09-14T21:26:51.179Z,1.20
2022-09-14T21:29:23.624Z,1.10
2022-09-14T21:31:51.906Z,0.77
2022-09-14T21:34:19.250Z,1.02
2022-09-14T21:36:50.887Z,1.25
2022-09-14T21:39:23.631Z,0.80
2022-09-14T21:41:58.074Z,1.00
2022-09-14T21:44:34.817Z,0.85
2022-09-14T21:47:02.797Z,1.05
2022-09-14T21:49:30.489Z,1.08
2022-09-14T21:51:58.555Z,1.03
2022-09-14T21:54:26.438Z,0.90
2022-09-14T21:56:54.485Z,0.98
2022-09-14T21:59:23.056Z,1.00
2022-09-14T22:01:51.410Z,1.13
2022-09-14T22:04:24.623Z,0.93
2022-09-14T22:06:53.378Z,1.20
2022-09-14T22:09:24.386Z,0.90
2022-09-14T22:11:51.799Z,1.08
2022-09-14T22:14:27.155Z,0.90
2022-09-14T22:16:54.976Z,0.70
2022-09-14T22:21:55.602Z,1.13
2022-09-14T22:24:28.177Z,1.40
2022-09-14T22:26:57.411Z,0.93
2022-09-14T22:29:24.960Z,1.10
2022-09-14T22:31:52.441Z,1.15
2022-09-14T22:34:21.318Z,1.60
2022-09-14T22:36:48.566Z,1.27
2022-09-14T22:39:15.970Z,0.77
2022-09-14T22:41:43.067Z,1.00
2022-09-14T22:44:12.656Z,1.60
2022-09-14T22:46:39.865Z,1.58
2022-09-14T22:49:07.137Z,1.33
2022-09-14T22:51:34.596Z,1.13
2022-09-14T22:54:02.251Z,2.20
2022-09-14T22:56:36.944Z,1.40
2022-09-14T22:59:07.653Z,1.30
2022-09-14T23:01:40.571Z,2.17
2022-09-14T23:04:13.069Z,1.90
2022-09-14T23:06:44.891Z,1.85
2022-09-14T23:09:19.280Z,1.85
2022-09-14T23:11:47.004Z,1.70
2022-09-14T23:14:15.797Z,1.65
2022-09-14T23:16:45.031Z,1.40
2022-09-14T23:19:16.856Z,1.55
2022-09-14T23:21:44.371Z,1.70
2022-09-14T23:24:11.603Z,1.98
2022-09-14T23:26:39.539Z,2.15
2022-09-14T23:29:16.625Z,1.70
2022-09-14T23:31:44.661Z,1.70
2022-09-14T23:34:12.037Z,1.45
2022-09-14T23:36:39.590Z,1.63
2022-09-14T23:39:06.934Z,1.50
2022-09-14T23:41:34.036Z,1.70
2022-09-14T23:44:01.280Z,1.90
2022-09-14T23:46:28.790Z,1.45
2022-09-14T23:48:55.867Z,2.03
2022-09-14T23:51:23.035Z,1.60
2022-09-14T23:53:50.184Z,2.03
2022-09-14T23:56:17.269Z,1.55
2022-09-14T23:58:45.508Z,1.60
